createdAt,value
2022-08-19T00:01:28.958Z,14.90
2022-08-19T00:03:58.346Z,15.07
2022-08-19T00:06:25.006Z,10.43
2022-08-19T00:08:52.277Z,10.23
2022-08-19T00:11:25.512Z,12.10
2022-08-19T00:13:52.599Z,11.57
2022-08-19T00:16:26.323Z,11.73
2022-08-19T00:18:54.661Z,12.00
2022-08-19T00:21:21.203Z,15.27
2022-08-19T00:23:47.718Z,17.70
2022-08-19T00:26:14.428Z,17.87
2022-08-19T00:28:40.942Z,12.80
2022-08-19T00:31:08.698Z,12.53
2022-08-19T00:33:35.222Z,11.20
2022-08-19T00:36:07.251Z,14.53
2022-08-19T00:38:37.581Z,18.23
2022-08-19T00:41:06.578Z,14.40
2022-08-19T00:43:33.537Z,18.47
2022-08-19T00:46:00.056Z,14.17
2022-08-19T00:48:26.629Z,13.07
2022-08-19T00:50:54.148Z,14.37
2022-08-19T00:53:24.438Z,18.97
2022-08-19T00:55:52.535Z,13.00
2022-08-19T00:58:22.257Z,19.57
2022-08-19T01:00:49.105Z,20.83
2022-08-19T01:03:19.202Z,19.43
2022-08-19T01:05:47.282Z,17.43
2022-08-19T01:08:16.240Z,16.23
2022-08-19T01:10:57.649Z,20.63
2022-08-19T01:13:27.086Z,16.53
2022-08-19T01:15:57.596Z,16.57
2022-08-19T01:18:24.360Z,17.67
2022-08-19T01:20:52.232Z,17.90
2022-08-19T01:23:19.276Z,19.47
2022-08-19T01:25:52.066Z,16.13
2022-08-19T01:28:40.058Z,16.23
2022-08-19T01:31:12.517Z,13.97
2022-08-19T01:33:55.937Z,13.23
2022-08-19T01:36:29.396Z,15.17
2022-08-19T01:38:57.057Z,14.00
2022-08-19T01:41:24.431Z,18.37
2022-08-19T01:44:13.316Z,16.13
2022-08-19T01:46:39.645Z,19.47
2022-08-19T01:49:08.395Z,14.20
2022-08-19T01:51:40.043Z,18.47
2022-08-19T01:54:10.353Z,16.90
2022-08-19T01:56:37.016Z,13.20
2022-08-19T01:59:06.367Z,15.27
2022-08-19T02:01:33.518Z,14.07
2022-08-19T02:04:01.626Z,14.90
2022-08-19T02:06:28.895Z,15.00
2022-08-19T02:08:57.431Z,13.97
2022-08-19T02:11:27.499Z,19.87
2022-08-19T02:13:55.001Z,16.27
2022-08-19T02:16:22.017Z,19.97
2022-08-19T02:18:51.369Z,19.40
2022-08-19T02:21:19.701Z,17.90
2022-08-19T02:23:47.014Z,17.40
2022-08-19T02:26:13.548Z,16.13
2022-08-19T02:28:40.939Z,15.63
2022-08-19T02:31:12.773Z,20.70
2022-08-19T02:33:40.013Z,18.97
2022-08-19T02:36:07.800Z,19.17
2022-08-19T02:38:35.657Z,20.33
2022-08-19T02:41:06.537Z,19.37
2022-08-19T02:43:36.854Z,16.10
2022-08-19T02:46:18.861Z,16.80
2022-08-19T02:48:45.367Z,17.20
2022-08-19T02:51:17.690Z,21.80
2022-08-19T02:53:44.352Z,20.23
2022-08-19T02:56:10.759Z,22.77
2022-08-19T02:58:37.164Z,23.13
2022-08-19T03:01:04.929Z,20.03
2022-08-19T03:03:31.574Z,21.03
2022-08-19T03:06:14.102Z,16.00
2022-08-19T03:08:43.794Z,19.17
2022-08-19T03:11:18.409Z,16.80
2022-08-19T03:13:45.654Z,16.53
2022-08-19T03:16:12.866Z,19.33
2022-08-19T03:18:39.644Z,20.00
2022-08-19T03:21:06.940Z,19.07
2022-08-19T03:23:38.937Z,20.00
2022-08-19T03:26:16.639Z,14.73
2022-08-19T03:28:50.983Z,18.97
2022-08-19T03:31:43.663Z,17.97
2022-08-19T03:34:18.583Z,18.33
2022-08-19T03:36:46.386Z,18.00
2022-08-19T03:39:12.943Z,14.07
2022-08-19T03:41:44.691Z,16.43
2022-08-19T03:44:19.430Z,12.47
2022-08-19T03:46:57.894Z,16.00
2022-08-19T03:49:30.281Z,14.33
2022-08-19T03:51:58.404Z,18.33
2022-08-19T03:54:26.022Z,21.23
2022-08-19T03:56:54.553Z,15.93
2022-08-19T03:59:33.477Z,17.70
2022-08-19T04:02:02.989Z,22.80
2022-08-19T04:04:30.289Z,20.73
2022-08-19T04:06:58.536Z,21.90
2022-08-19T04:09:24.979Z,23.63
2022-08-19T04:11:54.806Z,24.73
2022-08-19T04:14:24.946Z,26.03
2022-08-19T04:16:52.511Z,22.33
2022-08-19T04:19:19.822Z,22.53
2022-08-19T04:21:48.246Z,21.30
2022-08-19T04:24:14.765Z,23.97
2022-08-19T04:26:41.810Z,23.60
2022-08-19T04:29:13.016Z,27.43
2022-08-19T04:31:40.011Z,19.53
2022-08-19T04:34:11.668Z,23.27
2022-08-19T04:36:39.141Z,23.40
2022-08-19T04:39:08.369Z,19.13
2022-08-19T04:41:53.843Z,19.57
2022-08-19T04:44:20.444Z,17.40
2022-08-19T04:46:50.978Z,22.20
2022-08-19T04:49:20.018Z,20.57
2022-08-19T04:51:50.891Z,17.63
2022-08-19T04:54:30.990Z,18.93
2022-08-19T04:57:07.059Z,17.37
2022-08-19T04:59:34.540Z,18.47
2022-08-19T05:02:01.031Z,19.97
2022-08-19T05:04:29.004Z,26.13
2022-08-19T05:06:56.987Z,19.30
2022-08-19T05:09:27.941Z,17.87
2022-08-19T05:11:54.728Z,21.30
2022-08-19T05:14:21.979Z,19.30
2022-08-19T05:16:48.606Z,22.17
2022-08-19T05:19:33.773Z,26.40
2022-08-19T05:22:19.611Z,23.27
2022-08-19T05:25:09.316Z,29.60
2022-08-19T05:27:33.191Z,21.43
2022-08-19T05:30:00.284Z,26.67
2022-08-19T05:32:27.129Z,24.80
2022-08-19T05:34:53.554Z,24.30
2022-08-19T05:37:20.250Z,29.50
2022-08-19T05:39:51.272Z,25.20
2022-08-19T05:42:18.058Z,25.97
2022-08-19T05:44:45.316Z,23.40
2022-08-19T05:47:13.492Z,23.07
2022-08-19T05:49:39.956Z,29.00
2022-08-19T05:52:09.146Z,30.93
2022-08-19T05:54:36.921Z,27.23
2022-08-19T05:57:03.841Z,34.97
2022-08-19T05:59:30.375Z,27.80
2022-08-19T06:01:58.260Z,31.60
2022-08-19T06:04:25.076Z,29.20
2022-08-19T06:06:53.391Z,31.47
2022-08-19T06:09:21.055Z,25.30
2022-08-19T06:11:56.254Z,32.53
2022-08-19T06:14:28.030Z,36.10
2022-08-19T06:16:54.742Z,32.23
2022-08-19T06:19:23.296Z,29.47
2022-08-19T06:21:51.576Z,34.87
2022-08-19T06:24:24.957Z,33.00
2022-08-19T06:26:56.699Z,38.30
2022-08-19T06:29:25.585Z,35.73
2022-08-19T06:31:55.464Z,35.07
2022-08-19T06:34:22.029Z,36.37
2022-08-19T06:36:50.360Z,32.67
2022-08-19T06:39:23.757Z,31.27
2022-08-19T06:41:55.428Z,29.53
2022-08-19T06:44:26.822Z,28.57
2022-08-19T06:46:55.149Z,30.07
2022-08-19T06:49:22.532Z,29.70
2022-08-19T06:51:49.683Z,28.37
2022-08-19T06:54:20.004Z,27.57
2022-08-19T06:56:47.258Z,29.47
2022-08-19T06:59:17.469Z,26.47
2022-08-19T07:01:47.978Z,26.77
2022-08-19T07:04:16.863Z,21.43
2022-08-19T07:06:46.398Z,22.73
2022-08-19T07:09:21.640Z,24.47
2022-08-19T07:11:50.329Z,26.50
2022-08-19T07:14:20.199Z,18.97
2022-08-19T07:16:49.066Z,19.27
2022-08-19T07:19:18.677Z,12.90
2022-08-19T07:21:47.171Z,22.53
2022-08-19T07:24:13.706Z,17.13
2022-08-19T07:26:43.349Z,17.30
2022-08-19T07:29:11.237Z,17.93
2022-08-19T07:31:38.169Z,17.90
2022-08-19T07:34:09.277Z,15.40
2022-08-19T07:36:38.133Z,18.23
2022-08-19T07:39:08.769Z,17.57
2022-08-19T07:41:38.026Z,13.23
2022-08-19T07:44:06.297Z,12.30
2022-08-19T07:46:33.511Z,9.47
2022-08-19T07:49:01.362Z,14.87
2022-08-19T07:51:36.363Z,6.40
2022-08-19T07:54:04.270Z,6.77
2022-08-19T07:56:30.773Z,5.47
2022-08-19T08:01:28.767Z,8.17
2022-08-19T08:04:15.453Z,9.10
2022-08-19T08:07:00.618Z,8.27
2022-08-19T08:09:39.255Z,10.97
2022-08-19T08:12:32.928Z,7.53
2022-08-19T08:15:03.092Z,8.23
2022-08-19T08:17:49.310Z,8.70
2022-08-19T08:20:16.616Z,4.00
2022-08-19T08:23:06.119Z,7.77
2022-08-19T08:25:34.363Z,6.83
2022-08-19T08:28:02.340Z,7.43
2022-08-19T08:30:32.837Z,6.50
2022-08-19T08:33:00.386Z,8.23
2022-08-19T08:35:29.448Z,5.77
2022-08-19T08:37:57.436Z,6.40
2022-08-19T08:40:46.820Z,5.23
2022-08-19T08:43:30.650Z,5.07
2022-08-19T08:46:06.887Z,4.07
2022-08-19T08:48:47.793Z,5.40
2022-08-19T08:51:31.963Z,4.90
2022-08-19T08:54:03.437Z,7.27
2022-08-19T08:59:31.730Z,5.03
2022-08-19T09:01:58.261Z,8.40
2022-08-19T09:04:24.884Z,5.80
2022-08-19T09:06:56.514Z,7.27
2022-08-19T09:09:32.918Z,6.40
2022-08-19T09:12:05.435Z,5.07
2022-08-19T09:14:52.330Z,6.27
2022-08-19T09:17:31.914Z,9.13
2022-08-19T09:20:05.971Z,6.33
2022-08-19T09:22:37.606Z,5.20
2022-08-19T09:25:06.541Z,11.73
2022-08-19T09:27:41.991Z,4.03
2022-08-19T09:30:18.255Z,7.83
2022-08-19T09:32:46.191Z,8.73
2022-08-19T09:35:13.646Z,6.83
2022-08-19T09:37:40.902Z,5.50
2022-08-19T09:40:09.092Z,7.57
2022-08-19T09:42:35.715Z,7.40
2022-08-19T09:45:05.063Z,2.80
2022-08-19T09:47:33.417Z,3.03
2022-08-19T09:49:59.842Z,6.53
2022-08-19T09:52:26.335Z,3.53
2022-08-19T09:54:59.571Z,3.60
2022-08-19T09:57:26.029Z,3.87
2022-08-19T09:59:52.506Z,2.83
2022-08-19T10:02:22.200Z,3.90
2022-08-19T10:05:07.551Z,5.20
2022-08-19T10:07:36.435Z,2.87
2022-08-19T10:10:07.043Z,2.97
2022-08-19T10:12:34.897Z,4.17
2022-08-19T10:15:01.527Z,3.80
2022-08-19T10:17:31.699Z,4.90
2022-08-19T10:20:00.744Z,3.33
2022-08-19T10:22:27.485Z,5.23
2022-08-19T10:24:54.569Z,3.70
2022-08-19T10:27:21.586Z,4.90
2022-08-19T10:29:48.946Z,2.27
2022-08-19T10:32:15.495Z,3.30
2022-08-19T10:34:48.144Z,4.97
2022-08-19T10:37:15.446Z,5.95
2022-08-19T10:39:48.835Z,6.35
2022-08-19T10:42:17.134Z,11.95
2022-08-19T10:44:43.727Z,5.43
2022-08-19T10:47:17.504Z,3.92
2022-08-19T10:50:12.102Z,4.00
2022-08-19T10:52:49.009Z,7.95
2022-08-19T10:55:35.169Z,3.03
2022-08-19T10:58:02.781Z,5.07
2022-08-19T11:00:29.942Z,4.75
2022-08-19T11:02:56.743Z,8.43
2022-08-19T11:05:24.246Z,3.83
2022-08-19T11:07:52.290Z,8.73
2022-08-19T11:10:21.767Z,4.15
2022-08-19T11:12:49.157Z,7.18
2022-08-19T11:15:15.847Z,3.85
2022-08-19T11:17:44.093Z,5.70
2022-08-19T11:20:13.171Z,6.75
2022-08-19T11:22:41.749Z,3.08
2022-08-19T11:25:09.970Z,2.47
2022-08-19T11:27:43.105Z,3.42
2022-08-19T11:30:10.982Z,3.03
2022-08-19T11:32:42.630Z,2.33
2022-08-19T11:35:12.320Z,1.15
2022-08-19T11:37:39.064Z,5.78
2022-08-19T11:40:07.148Z,2.83
2022-08-19T11:42:52.397Z,4.43
2022-08-19T11:45:18.872Z,5.15
2022-08-19T11:47:45.372Z,2.88
2022-08-19T11:50:11.822Z,2.10
2022-08-19T11:52:38.256Z,3.83
2022-08-19T11:55:05.237Z,3.83
2022-08-19T11:57:31.685Z,2.05
2022-08-19T11:59:58.105Z,3.50
2022-08-19T12:02:24.684Z,2.97
2022-08-19T12:04:51.143Z,2.92
2022-08-19T12:07:18.074Z,4.82
2022-08-19T12:09:44.566Z,3.80
2022-08-19T12:12:12.584Z,5.95
2022-08-19T12:14:39.994Z,2.15
2022-08-19T12:17:08.469Z,6.35
2022-08-19T12:19:36.719Z,2.75
2022-08-19T12:22:04.265Z,3.45
2022-08-19T12:24:33.938Z,2.83
2022-08-19T12:27:02.939Z,4.32
2022-08-19T12:29:30.343Z,1.80
2022-08-19T12:32:02.087Z,3.38
2022-08-19T12:34:33.220Z,1.13
2022-08-19T12:37:02.655Z,2.70
2022-08-19T12:39:29.263Z,4.35
2022-08-19T12:41:55.867Z,3.28
2022-08-19T12:44:29.280Z,2.00
2022-08-19T12:46:59.116Z,4.18
2022-08-19T12:49:52.464Z,5.50
2022-08-19T12:52:16.062Z,2.28
2022-08-19T12:54:44.121Z,2.50
2022-08-19T12:57:11.477Z,4.80
2022-08-19T12:59:38.858Z,2.05
2022-08-19T13:02:07.074Z,3.05
2022-08-19T13:04:37.173Z,5.70
2022-08-19T13:07:04.083Z,7.25
2022-08-19T13:09:30.506Z,3.58
2022-08-19T13:11:57.766Z,7.90
2022-08-19T13:14:24.295Z,3.45
2022-08-19T13:16:53.511Z,1.98
2022-08-19T13:19:21.952Z,2.30
2022-08-19T13:21:50.979Z,2.28
2022-08-19T13:24:27.732Z,0.63
2022-08-19T13:27:01.408Z,0.77
2022-08-19T13:29:46.395Z,1.23
2022-08-19T13:32:31.536Z,1.92
2022-08-19T13:34:58.067Z,0.73
2022-08-19T13:37:42.066Z,0.80
2022-08-19T13:40:16.537Z,0.73
2022-08-19T13:42:44.877Z,1.48
2022-08-19T13:45:12.542Z,1.75
2022-08-19T13:47:43.632Z,2.33
2022-08-19T13:50:12.009Z,3.47
2022-08-19T13:52:39.560Z,1.50
2022-08-19T13:55:07.355Z,1.70
2022-08-19T13:57:34.162Z,1.48
2022-08-19T14:00:00.597Z,1.98
2022-08-19T14:02:27.432Z,1.05
2022-08-19T14:04:54.926Z,2.55
2022-08-19T14:07:24.425Z,1.58
2022-08-19T14:09:51.535Z,2.78
2022-08-19T14:12:28.710Z,3.92
2022-08-19T14:14:55.823Z,2.67
2022-08-19T14:17:22.463Z,3.42
2022-08-19T14:19:49.045Z,2.30
2022-08-19T14:22:15.512Z,3.15
2022-08-19T14:24:48.885Z,1.50
2022-08-19T14:27:15.723Z,3.33
2022-08-19T14:29:42.172Z,2.72
2022-08-19T14:32:08.688Z,1.63
2022-08-19T14:34:43.288Z,2.13
2022-08-19T14:37:14.325Z,1.83
2022-08-19T14:39:44.717Z,4.28
2022-08-19T14:42:12.155Z,3.58
2022-08-19T14:44:38.845Z,1.25
2022-08-19T14:47:05.603Z,1.42
2022-08-19T14:49:35.374Z,6.40
2022-08-19T14:52:09.519Z,1.80
2022-08-19T14:54:36.039Z,3.95
2022-08-19T14:57:02.488Z,3.38
2022-08-19T14:59:29.268Z,3.85
2022-08-19T15:01:55.888Z,5.30
2022-08-19T15:04:22.364Z,1.17
2022-08-19T15:06:48.801Z,5.35
2022-08-19T15:09:15.235Z,5.45
2022-08-19T15:11:41.723Z,4.47
2022-08-19T15:14:08.144Z,1.95
2022-08-19T15:16:34.765Z,3.15
2022-08-19T15:19:01.602Z,6.47
2022-08-19T15:21:29.446Z,3.45
2022-08-19T15:23:57.589Z,2.00
2022-08-19T15:26:26.153Z,1.60
2022-08-19T15:28:53.055Z,2.80
2022-08-19T15:31:28.399Z,3.83
2022-08-19T15:33:58.144Z,24.70
2022-08-19T15:36:26.220Z,2.60
2022-08-19T15:38:53.227Z,2.50
2022-08-19T15:41:25.736Z,1.48
2022-08-19T15:43:55.409Z,3.38
2022-08-19T15:46:24.432Z,3.88
2022-08-19T15:48:56.209Z,10.52
2022-08-19T15:51:24.471Z,3.80
2022-08-19T15:53:51.347Z,1.95
2022-08-19T15:56:17.788Z,3.15
2022-08-19T15:59:02.911Z,2.85
2022-08-19T16:01:48.088Z,4.68
2022-08-19T16:04:34.743Z,2.72
2022-08-19T16:07:01.794Z,1.60
2022-08-19T16:09:31.078Z,2.67
2022-08-19T16:12:03.826Z,1.80
2022-08-19T16:14:32.701Z,3.10
2022-08-19T16:16:59.316Z,5.32
2022-08-19T16:19:25.861Z,1.70
2022-08-19T16:21:54.084Z,2.83
2022-08-19T16:24:23.338Z,2.38
2022-08-19T16:26:50.043Z,3.50
2022-08-19T16:29:25.826Z,4.53
2022-08-19T16:32:02.824Z,3.55
2022-08-19T16:34:29.819Z,2.55
2022-08-19T16:36:56.270Z,1.73
2022-08-19T16:39:23.690Z,2.28
2022-08-19T16:41:51.000Z,2.65
2022-08-19T16:44:18.796Z,3.55
2022-08-19T16:46:47.134Z,2.05
2022-08-19T16:49:22.565Z,2.25
2022-08-19T16:52:05.917Z,1.52
2022-08-19T16:54:32.708Z,2.83
2022-08-19T16:56:59.200Z,2.72
2022-08-19T16:59:26.722Z,3.55
2022-08-19T17:01:53.193Z,2.58
2022-08-19T17:04:20.719Z,4.40
2022-08-19T17:06:47.347Z,5.47
2022-08-19T17:09:15.988Z,2.92
2022-08-19T17:11:42.555Z,2.72
2022-08-19T17:14:09.086Z,2.75
2022-08-19T17:16:36.843Z,2.80
2022-08-19T17:19:05.998Z,4.80
2022-08-19T17:21:35.044Z,5.22
2022-08-19T17:24:03.643Z,4.53
2022-08-19T17:26:30.500Z,2.67
2022-08-19T17:28:57.923Z,2.17
2022-08-19T17:31:26.321Z,4.63
2022-08-19T17:33:53.224Z,2.40
2022-08-19T17:36:26.326Z,1.77
2022-08-19T17:38:56.627Z,2.95
2022-08-19T17:41:24.338Z,2.03
2022-08-19T17:43:51.097Z,4.50
2022-08-19T17:46:18.808Z,2.63
2022-08-19T17:48:51.728Z,2.10
2022-08-19T17:51:22.717Z,2.70
2022-08-19T17:53:52.153Z,2.10
2022-08-19T17:56:18.915Z,2.40
2022-08-19T17:58:58.253Z,2.60
2022-08-19T18:01:27.036Z,5.70
2022-08-19T18:03:59.677Z,1.50
2022-08-19T18:06:26.155Z,5.83
2022-08-19T18:08:52.641Z,2.50
2022-08-19T18:11:19.286Z,1.90
2022-08-19T18:13:45.753Z,2.47
2022-08-19T18:16:13.248Z,3.57
2022-08-19T18:18:41.564Z,5.10
2022-08-19T18:21:09.101Z,2.00
2022-08-19T18:23:44.336Z,4.87
2022-08-19T18:26:12.182Z,4.90
2022-08-19T18:28:39.818Z,3.80
2022-08-19T18:31:17.145Z,3.97
2022-08-19T18:33:44.686Z,2.60
2022-08-19T18:36:11.966Z,2.60
2022-08-19T18:38:57.047Z,2.93
2022-08-19T18:41:43.203Z,3.37
2022-08-19T18:44:28.627Z,4.47
2022-08-19T18:47:13.921Z,6.23
2022-08-19T18:49:40.575Z,3.27
2022-08-19T18:52:07.132Z,6.40
2022-08-19T18:54:34.323Z,2.93
2022-08-19T18:57:00.905Z,2.43
2022-08-19T18:59:29.917Z,2.20
2022-08-19T19:01:58.786Z,2.40
2022-08-19T19:04:33.204Z,3.13
2022-08-19T19:07:00.196Z,4.67
2022-08-19T19:09:26.732Z,2.83
2022-08-19T19:11:56.147Z,1.50
2022-08-19T19:14:47.574Z,2.00
2022-08-19T19:17:14.173Z,2.87
2022-08-19T19:19:42.606Z,3.80
2022-08-19T19:22:12.287Z,4.77
2022-08-19T19:24:40.698Z,3.47
2022-08-19T19:27:08.435Z,4.10
2022-08-19T19:29:38.243Z,2.43
2022-08-19T19:32:06.931Z,3.37
2022-08-19T19:34:33.575Z,2.20
2022-08-19T19:37:00.014Z,5.07
2022-08-19T19:39:34.042Z,3.37
2022-08-19T19:42:19.937Z,4.43
2022-08-19T19:44:48.708Z,3.20
2022-08-19T19:47:18.839Z,3.40
2022-08-19T19:50:10.728Z,3.47
2022-08-19T19:52:33.047Z,7.63
2022-08-19T19:54:59.868Z,4.43
2022-08-19T19:57:26.847Z,2.83
2022-08-19T19:59:54.152Z,6.20
2022-08-19T20:02:22.001Z,3.07
2022-08-19T20:04:48.818Z,4.77
2022-08-19T20:07:15.283Z,4.00
2022-08-19T20:09:58.831Z,4.30
2022-08-19T20:12:26.098Z,3.97
2022-08-19T20:14:52.587Z,4.77
2022-08-19T20:17:20.790Z,7.17
2022-08-19T20:19:47.994Z,3.23
2022-08-19T20:22:15.016Z,4.03
2022-08-19T20:24:42.636Z,6.00
2022-08-19T20:27:09.564Z,5.23
2022-08-19T20:29:41.673Z,9.20
2022-08-19T20:32:12.398Z,14.53
2022-08-19T20:34:40.178Z,21.70
2022-08-19T20:37:09.456Z,37.60
2022-08-19T20:39:36.506Z,16.57
2022-08-19T20:42:03.078Z,6.80
2022-08-19T20:44:29.521Z,11.90
2022-08-19T20:46:59.380Z,9.60
2022-08-19T20:49:29.324Z,6.10
2022-08-19T20:51:56.641Z,6.37
2022-08-19T20:54:24.024Z,5.87
2022-08-19T20:56:51.091Z,7.63
2022-08-19T20:59:17.691Z,14.70
2022-08-19T21:01:44.158Z,15.73
2022-08-19T21:04:10.594Z,37.87
2022-08-19T21:06:38.140Z,10.23
2022-08-19T21:09:05.067Z,36.83
2022-08-19T21:11:32.201Z,17.00
2022-08-19T21:13:59.462Z,6.30
2022-08-19T21:16:25.937Z,4.73
2022-08-19T21:18:52.402Z,2.80
2022-08-19T21:21:18.918Z,5.73
2022-08-19T21:23:45.429Z,6.93
2022-08-19T21:26:11.909Z,16.90
2022-08-19T21:28:38.361Z,15.43
2022-08-19T21:31:07.300Z,8.43
2022-08-19T21:33:33.961Z,7.83
2022-08-19T21:36:00.695Z,6.27
2022-08-19T21:38:27.675Z,3.87
2022-08-19T21:40:54.755Z,6.00
2022-08-19T21:43:21.848Z,20.50
2022-08-19T21:45:50.441Z,20.63
2022-08-19T21:48:17.314Z,7.60
2022-08-19T21:50:44.482Z,3.57
2022-08-19T21:53:17.735Z,5.80
2022-08-19T21:55:44.474Z,11.33
2022-08-19T21:58:12.339Z,20.53
2022-08-19T22:00:39.688Z,8.20
2022-08-19T22:03:06.450Z,3.57
2022-08-19T22:05:33.844Z,2.50
2022-08-19T22:08:02.843Z,4.40
2022-08-19T22:10:32.045Z,35.93
2022-08-19T22:12:58.759Z,7.23
2022-08-19T22:15:27.167Z,7.07
2022-08-19T22:17:54.436Z,6.93
2022-08-19T22:20:23.236Z,4.43
2022-08-19T22:22:52.727Z,3.50
2022-08-19T22:25:30.194Z,25.87
2022-08-19T22:28:02.566Z,12.73
2022-08-19T22:30:33.240Z,6.90
2022-08-19T22:33:03.319Z,6.63
2022-08-19T22:35:37.773Z,6.50
2022-08-19T22:38:06.471Z,4.67
2022-08-19T22:40:36.422Z,6.63
2022-08-19T22:43:10.120Z,36.87
2022-08-19T22:45:36.959Z,45.23
2022-08-19T22:48:07.687Z,18.90
2022-08-19T22:50:35.757Z,4.97
2022-08-19T22:53:02.989Z,3.87
2022-08-19T22:55:30.996Z,4.63
2022-08-19T22:57:58.884Z,3.93
2022-08-19T23:00:27.787Z,5.40
2022-08-19T23:02:55.287Z,5.40
2022-08-19T23:05:24.109Z,3.67
2022-08-19T23:07:52.239Z,5.10
2022-08-19T23:10:27.485Z,5.60
2022-08-19T23:12:56.897Z,6.47
2022-08-19T23:15:26.098Z,5.23
2022-08-19T23:17:54.129Z,6.10
2022-08-19T23:20:23.286Z,4.17
2022-08-19T23:22:51.493Z,4.27
2022-08-19T23:25:24.193Z,4.53
2022-08-19T23:28:09.249Z,4.30
2022-08-19T23:30:39.497Z,3.20
2022-08-19T23:33:13.336Z,8.10
2022-08-19T23:35:40.980Z,5.53
2022-08-19T23:38:08.399Z,6.23
2022-08-19T23:40:36.769Z,5.10
2022-08-19T23:43:08.228Z,5.30
2022-08-19T23:45:39.392Z,3.00
2022-08-19T23:48:06.940Z,5.73
2022-08-19T23:50:33.994Z,4.00
2022-08-19T23:53:01.628Z,4.00
2022-08-19T23:55:34.860Z,5.47
2022-08-19T23:58:02.082Z,3.27
